createdAt,value
2023-02-01T00:01:20.566Z,4.61
2023-02-01T00:03:47.287Z,4.48
2023-02-01T00:06:13.960Z,4.48
2023-02-01T00:08:40.721Z,4.46
2023-02-01T00:11:11.879Z,4.32
2023-02-01T00:13:41.300Z,4.38
2023-02-01T00:16:13.873Z,4.36
2023-02-01T00:18:40.466Z,4.22
2023-02-01T00:21:07.127Z,4.20
2023-02-01T00:23:38.374Z,4.26
2023-02-01T00:26:06.899Z,4.09
2023-02-01T00:28:34.343Z,4.00
2023-02-01T00:31:03.338Z,3.96
2023-02-01T00:33:31.861Z,3.94
2023-02-01T00:36:00.086Z,3.73
2023-02-01T00:38:31.337Z,3.83
2023-02-01T00:41:22.107Z,3.82
2023-02-01T00:43:49.387Z,3.64
2023-02-01T00:46:17.899Z,3.50
2023-02-01T00:48:45.030Z,3.42
2023-02-01T00:51:14.641Z,3.23
2023-02-01T00:53:42.002Z,3.43
2023-02-01T00:56:10.044Z,3.32
2023-02-01T00:58:36.564Z,3.02
2023-02-01T01:01:11.539Z,2.94
2023-02-01T01:03:41.753Z,2.81
2023-02-01T01:06:11.531Z,2.79
2023-02-01T01:08:38.765Z,2.72
2023-02-01T01:11:10.271Z,2.75
2023-02-01T01:13:37.671Z,2.75
2023-02-01T01:16:06.054Z,2.74
2023-02-01T01:18:34.114Z,2.90
2023-02-01T01:21:01.464Z,2.72
2023-02-01T01:23:28.795Z,2.51
2023-02-01T01:25:55.394Z,2.48
2023-02-01T01:28:21.997Z,2.57
2023-02-01T01:30:48.716Z,2.35
2023-02-01T01:33:15.465Z,2.38
2023-02-01T01:35:42.977Z,2.40
2023-02-01T01:38:11.677Z,2.35
2023-02-01T01:40:38.749Z,2.33
2023-02-01T01:43:13.664Z,2.31
2023-02-01T01:45:40.221Z,2.51
2023-02-01T01:48:08.733Z,2.59
2023-02-01T01:50:40.745Z,2.67
2023-02-01T01:53:11.207Z,2.67
2023-02-01T01:55:43.148Z,2.71
2023-02-01T01:58:15.979Z,2.82
2023-02-01T02:00:43.463Z,2.80
2023-02-01T02:03:28.113Z,2.87
2023-02-01T02:05:58.995Z,2.94
2023-02-01T02:08:27.624Z,2.88
2023-02-01T02:11:00.597Z,2.83
2023-02-01T02:13:40.892Z,2.74
2023-02-01T02:16:24.655Z,2.59
2023-02-01T02:19:20.636Z,2.52
2023-02-01T02:22:36.149Z,2.42
2023-02-01T02:25:44.341Z,2.33
2023-02-01T02:28:33.726Z,2.35
2023-02-01T02:31:13.293Z,2.23
2023-02-01T02:34:03.186Z,2.18
2023-02-01T02:36:39.901Z,2.25
2023-02-01T02:39:07.391Z,2.36
2023-02-01T02:41:55.657Z,2.48
2023-02-01T02:45:05.663Z,2.50
2023-02-01T02:47:40.040Z,2.58
2023-02-01T02:50:34.443Z,2.67
2023-02-01T02:54:02.842Z,2.59
2023-02-01T02:56:49.377Z,2.45
2023-02-01T02:59:39.520Z,2.53
2023-02-01T03:02:26.577Z,2.57
2023-02-01T03:04:57.212Z,2.58
2023-02-01T03:07:45.841Z,2.36
2023-02-01T03:10:35.022Z,2.44
2023-02-01T03:13:11.807Z,2.38
2023-02-01T03:16:03.909Z,2.30
2023-02-01T03:19:12.317Z,2.25
2023-02-01T03:21:43.783Z,2.23
2023-02-01T03:24:45.775Z,2.19
2023-02-01T03:27:19.591Z,2.15
2023-02-01T03:29:54.066Z,2.33
2023-02-01T03:32:21.317Z,2.36
2023-02-01T03:34:49.065Z,2.23
2023-02-01T03:37:26.921Z,2.26
2023-02-01T03:39:55.833Z,2.33
2023-02-01T03:42:28.245Z,2.25
2023-02-01T03:45:18.728Z,2.16
2023-02-01T03:47:50.640Z,2.28
2023-02-01T03:50:24.876Z,2.22
2023-02-01T03:53:02.804Z,2.20
2023-02-01T03:55:31.250Z,2.24
2023-02-01T03:58:11.655Z,2.21
2023-02-01T04:00:38.579Z,2.18
2023-02-01T04:03:06.884Z,2.17
2023-02-01T04:05:34.569Z,2.11
2023-02-01T04:08:01.309Z,2.04
2023-02-01T04:10:28.106Z,2.09
2023-02-01T04:12:54.899Z,2.11
2023-02-01T04:15:21.473Z,2.15
2023-02-01T04:17:48.079Z,2.20
2023-02-01T04:20:15.133Z,2.13
2023-02-01T04:22:41.902Z,2.20
2023-02-01T04:25:09.187Z,2.15
2023-02-01T04:27:36.898Z,2.12
2023-02-01T04:30:05.358Z,2.08
2023-02-01T04:32:31.969Z,2.04
2023-02-01T04:34:58.720Z,2.11
2023-02-01T04:37:25.299Z,2.06
2023-02-01T04:39:51.821Z,1.93
2023-02-01T04:42:18.514Z,1.91
2023-02-01T04:44:45.085Z,1.87
2023-02-01T04:47:11.631Z,1.99
2023-02-01T04:49:38.329Z,2.10
2023-02-01T04:52:05.224Z,2.19
2023-02-01T04:54:31.917Z,2.09
2023-02-01T04:56:58.588Z,2.08
2023-02-01T04:59:25.151Z,2.20
2023-02-01T05:01:51.710Z,2.27
2023-02-01T05:04:19.813Z,2.31
2023-02-01T05:06:46.574Z,2.46
2023-02-01T05:09:13.165Z,2.52
2023-02-01T05:11:58.723Z,2.55
2023-02-01T05:14:25.386Z,2.48
2023-02-01T05:16:52.025Z,2.46
2023-02-01T05:19:18.742Z,2.68
2023-02-01T05:21:45.287Z,2.76
2023-02-01T05:24:14.820Z,2.84
2023-02-01T05:26:42.306Z,2.68
2023-02-01T05:29:10.082Z,2.75
2023-02-01T05:31:37.170Z,2.76
2023-02-01T05:34:04.060Z,2.55
2023-02-01T05:36:30.748Z,2.47
2023-02-01T05:38:57.590Z,2.35
2023-02-01T05:41:24.325Z,2.52
2023-02-01T05:43:50.943Z,2.47
2023-02-01T05:46:17.535Z,2.60
2023-02-01T05:48:44.482Z,2.61
2023-02-01T05:51:12.101Z,2.65
2023-02-01T05:53:38.912Z,2.52
2023-02-01T05:56:06.044Z,2.44
2023-02-01T05:58:32.613Z,2.66
2023-02-01T06:01:03.518Z,2.75
2023-02-01T06:03:30.594Z,2.73
2023-02-01T06:05:57.213Z,2.75
2023-02-01T06:08:25.802Z,2.62
2023-02-01T06:11:01.307Z,2.65
2023-02-01T06:13:28.091Z,2.49
2023-02-01T06:15:54.969Z,2.51
2023-02-01T06:18:21.618Z,2.51
2023-02-01T06:20:56.357Z,2.51
2023-02-01T06:23:24.977Z,2.42
2023-02-01T06:26:00.614Z,2.48
2023-02-01T06:28:27.659Z,2.35
2023-02-01T06:30:54.383Z,2.23
2023-02-01T06:33:21.007Z,2.33
2023-02-01T06:35:48.258Z,2.26
2023-02-01T06:38:15.048Z,2.26
2023-02-01T06:40:43.234Z,2.47
2023-02-01T06:43:10.316Z,2.48
2023-02-01T06:45:36.935Z,2.65
2023-02-01T06:48:03.645Z,2.51
2023-02-01T06:50:30.268Z,2.47
2023-02-01T06:52:56.828Z,2.56
2023-02-01T06:55:23.394Z,2.43
2023-02-01T06:57:54.678Z,2.35
2023-02-01T07:00:23.086Z,2.50
2023-02-01T07:02:50.636Z,2.42
2023-02-01T07:05:17.539Z,2.55
2023-02-01T07:07:44.095Z,2.59
2023-02-01T07:10:11.401Z,2.58
2023-02-01T07:12:38.231Z,2.69
2023-02-01T07:15:05.503Z,2.92
2023-02-01T07:17:32.147Z,3.03
2023-02-01T07:20:00.981Z,3.46
2023-02-01T07:22:27.667Z,3.51
2023-02-01T07:24:54.217Z,3.39
2023-02-01T07:27:21.245Z,3.57
2023-02-01T07:29:47.812Z,3.68
2023-02-01T07:32:14.396Z,3.68
2023-02-01T07:34:41.174Z,3.57
2023-02-01T07:37:07.879Z,4.08
2023-02-01T07:39:34.444Z,3.93
2023-02-01T07:42:01.240Z,4.11
2023-02-01T07:44:27.931Z,4.34
2023-02-01T07:46:54.581Z,4.39
2023-02-01T07:49:21.196Z,4.03
2023-02-01T07:51:47.795Z,4.00
2023-02-01T07:54:14.338Z,4.01
2023-02-01T07:56:41.163Z,3.97
2023-02-01T07:59:08.719Z,3.88
2023-02-01T08:01:35.404Z,3.81
2023-02-01T08:04:04.615Z,3.82
2023-02-01T08:06:34.816Z,4.16
2023-02-01T08:09:01.922Z,4.28
2023-02-01T08:11:29.121Z,4.39
2023-02-01T08:13:56.222Z,4.51
2023-02-01T08:16:24.334Z,4.85
2023-02-01T08:18:51.451Z,4.79
2023-02-01T08:21:21.222Z,4.55
2023-02-01T08:23:47.763Z,4.40
2023-02-01T08:26:20.190Z,4.47
2023-02-01T08:28:51.212Z,4.60
2023-02-01T08:31:20.786Z,4.71
2023-02-01T08:33:51.882Z,5.00
2023-02-01T08:36:19.193Z,5.14
2023-02-01T08:38:45.874Z,4.74
2023-02-01T08:41:15.392Z,4.94
2023-02-01T08:43:42.518Z,5.05
2023-02-01T08:46:10.527Z,5.04
2023-02-01T08:48:38.149Z,5.05
2023-02-01T08:51:07.245Z,5.00
2023-02-01T08:53:34.020Z,5.07
2023-02-01T08:56:01.610Z,5.12
2023-02-01T08:58:28.412Z,4.93
2023-02-01T09:00:55.313Z,4.91
2023-02-01T09:03:22.405Z,4.96
2023-02-01T09:05:50.116Z,4.72
2023-02-01T09:08:17.334Z,5.01
2023-02-01T09:10:43.974Z,5.01
2023-02-01T09:13:10.734Z,5.17
2023-02-01T09:15:38.597Z,4.93
2023-02-01T09:18:05.368Z,5.15
2023-02-01T09:20:31.914Z,5.85
2023-02-01T09:22:58.922Z,5.41
2023-02-01T09:25:25.551Z,5.67
2023-02-01T09:27:52.226Z,5.46
2023-02-01T09:30:19.080Z,5.28
2023-02-01T09:32:45.662Z,5.24
2023-02-01T09:35:12.485Z,5.34
2023-02-01T09:37:39.124Z,5.48
2023-02-01T09:40:06.362Z,6.04
2023-02-01T09:43:00.954Z,5.88
2023-02-01T09:45:36.623Z,5.99
2023-02-01T09:48:13.456Z,5.52
2023-02-01T09:50:45.785Z,5.94
2023-02-01T09:53:44.130Z,6.28
2023-02-01T09:56:19.189Z,6.39
2023-02-01T09:58:48.803Z,7.31
2023-02-01T10:01:23.103Z,6.89
2023-02-01T10:03:51.468Z,6.96
2023-02-01T10:06:46.140Z,6.89
2023-02-01T10:09:18.301Z,7.52
2023-02-01T10:11:56.917Z,7.73
2023-02-01T10:14:44.683Z,7.31
2023-02-01T10:17:59.406Z,6.61
2023-02-01T10:20:51.483Z,6.97
2023-02-01T10:23:48.960Z,7.38
2023-02-01T10:26:20.171Z,7.97
2023-02-01T10:28:51.141Z,7.52
2023-02-01T10:31:19.685Z,7.87
2023-02-01T10:33:52.481Z,7.04
2023-02-01T10:36:32.204Z,6.88
2023-02-01T10:39:03.175Z,7.12
2023-02-01T10:41:34.915Z,7.41
2023-02-01T10:44:04.532Z,7.71
2023-02-01T10:46:32.858Z,7.76
2023-02-01T10:49:03.286Z,6.95
2023-02-01T10:51:51.584Z,7.42
2023-02-01T10:54:21.683Z,7.71
2023-02-01T10:56:50.618Z,7.81
2023-02-01T10:59:24.999Z,7.46
2023-02-01T11:02:00.192Z,6.92
2023-02-01T11:04:27.800Z,7.43
2023-02-01T11:07:08.601Z,7.40
2023-02-01T11:09:40.710Z,7.29
2023-02-01T11:12:24.365Z,7.72
2023-02-01T11:14:51.720Z,7.91
2023-02-01T11:17:27.269Z,8.07
2023-02-01T11:20:15.576Z,8.84
2023-02-01T11:22:53.886Z,8.70
2023-02-01T11:25:21.283Z,8.64
2023-02-01T11:27:55.261Z,8.28
2023-02-01T11:30:34.364Z,8.93
2023-02-01T11:33:02.831Z,9.48
2023-02-01T11:35:31.038Z,9.06
2023-02-01T11:38:04.130Z,8.41
2023-02-01T11:40:36.995Z,8.03
2023-02-01T11:43:18.802Z,7.85
2023-02-01T11:45:59.979Z,8.14
2023-02-01T11:48:29.242Z,8.18
2023-02-01T11:51:24.403Z,8.25
2023-02-01T11:54:27.064Z,8.44
2023-02-01T11:57:15.415Z,8.07
2023-02-01T11:59:56.710Z,8.28
2023-02-01T12:02:51.507Z,8.76
2023-02-01T12:05:36.307Z,9.03
2023-02-01T12:08:32.929Z,8.91
2023-02-01T12:11:22.406Z,9.32
2023-02-01T12:14:05.919Z,10.35
2023-02-01T12:17:05.297Z,10.28
2023-02-01T12:19:34.936Z,11.22
2023-02-01T12:22:07.585Z,10.65
2023-02-01T12:24:56.111Z,9.81
2023-02-01T12:27:33.523Z,9.85
2023-02-01T12:30:24.733Z,9.97
2023-02-01T12:33:04.104Z,10.06
2023-02-01T12:35:39.907Z,9.76
2023-02-01T12:38:26.864Z,10.31
2023-02-01T12:40:53.445Z,10.86
2023-02-01T12:43:26.075Z,9.54
2023-02-01T12:46:08.328Z,9.62
2023-02-01T12:48:45.798Z,10.25
2023-02-01T12:51:30.580Z,9.70
2023-02-01T12:54:13.839Z,10.55
2023-02-01T12:56:57.667Z,9.63
2023-02-01T12:59:30.232Z,10.33
2023-02-01T13:02:10.978Z,9.91
2023-02-01T13:04:56.184Z,10.19
2023-02-01T13:07:45.842Z,9.17
2023-02-01T13:11:06.829Z,9.29
2023-02-01T13:13:55.382Z,8.53
2023-02-01T13:16:29.778Z,8.29
2023-02-01T13:19:07.096Z,8.18
2023-02-01T13:21:39.103Z,8.56
2023-02-01T13:24:06.009Z,8.98
2023-02-01T13:26:32.621Z,9.25
2023-02-01T13:29:11.801Z,9.82
2023-02-01T13:31:58.396Z,9.99
2023-02-01T13:34:31.124Z,10.03
2023-02-01T13:37:16.181Z,10.50
2023-02-01T13:40:22.985Z,10.48
2023-02-01T13:43:27.266Z,9.90
2023-02-01T13:45:58.875Z,9.07
2023-02-01T13:48:46.413Z,9.25
2023-02-01T13:51:14.790Z,9.05
2023-02-01T13:53:48.936Z,8.64
2023-02-01T13:56:20.708Z,9.05
2023-02-01T13:58:49.306Z,9.77
2023-02-01T14:01:21.803Z,9.79
2023-02-01T14:03:52.901Z,9.74
2023-02-01T14:06:28.568Z,9.54
2023-02-01T14:09:13.199Z,10.00
2023-02-01T14:11:41.093Z,10.06
2023-02-01T14:14:16.584Z,10.70
2023-02-01T14:17:03.340Z,10.62
2023-02-01T14:19:32.748Z,10.59
2023-02-01T14:22:20.990Z,10.61
2023-02-01T14:24:58.979Z,10.47
2023-02-01T14:27:29.471Z,10.17
2023-02-01T14:30:02.149Z,10.62
2023-02-01T14:32:39.372Z,10.95
2023-02-01T14:35:20.484Z,10.75
2023-02-01T14:37:52.067Z,11.11
2023-02-01T14:40:25.662Z,11.22
2023-02-01T14:42:54.035Z,10.47
2023-02-01T14:45:22.989Z,10.57
2023-02-01T14:47:55.450Z,9.71
2023-02-01T14:50:38.998Z,9.17
2023-02-01T14:53:12.437Z,9.56
2023-02-01T14:55:48.625Z,9.55
2023-02-01T14:58:41.157Z,9.95
2023-02-01T15:01:24.786Z,10.22
2023-02-01T15:04:14.700Z,9.76
2023-02-01T15:06:44.484Z,9.73
2023-02-01T15:09:40.074Z,9.89
2023-02-01T15:12:25.566Z,9.75
2023-02-01T15:15:11.514Z,8.86
2023-02-01T15:17:38.288Z,9.36
2023-02-01T15:20:26.926Z,8.93
2023-02-01T15:23:03.280Z,9.24
2023-02-01T15:25:32.685Z,8.82
2023-02-01T15:27:59.385Z,9.35
2023-02-01T15:30:29.967Z,9.01
2023-02-01T15:33:18.030Z,8.66
2023-02-01T15:35:47.930Z,8.81
2023-02-01T15:38:29.907Z,8.48
2023-02-01T15:41:06.937Z,8.49
2023-02-01T15:44:04.526Z,8.77
2023-02-01T15:46:37.135Z,8.71
2023-02-01T15:49:05.354Z,8.74
2023-02-01T15:51:36.256Z,8.30
2023-02-01T15:54:09.103Z,8.24
2023-02-01T15:56:39.028Z,8.36
2023-02-01T15:59:16.148Z,8.54
2023-02-01T16:01:43.352Z,8.56
2023-02-01T16:04:30.818Z,8.34
2023-02-01T16:07:04.444Z,8.30
2023-02-01T16:10:07.323Z,7.92
2023-02-01T16:12:39.741Z,8.12
2023-02-01T16:15:06.864Z,7.94
2023-02-01T16:17:33.830Z,8.21
2023-02-01T16:20:00.399Z,8.13
2023-02-01T16:22:26.982Z,8.16
2023-02-01T16:24:53.867Z,7.99
2023-02-01T16:27:22.044Z,7.57
2023-02-01T16:29:48.921Z,7.70
2023-02-01T16:32:19.853Z,7.51
2023-02-01T16:34:47.941Z,7.61
2023-02-01T16:37:20.734Z,7.45
2023-02-01T16:39:47.510Z,7.21
2023-02-01T16:42:15.249Z,7.29
2023-02-01T16:44:42.332Z,6.97
2023-02-01T16:47:18.426Z,7.13
2023-02-01T16:49:45.814Z,6.95
2023-02-01T16:52:25.326Z,6.91
2023-02-01T16:54:52.407Z,6.80
2023-02-01T16:57:23.547Z,6.89
2023-02-01T16:59:50.580Z,7.01
2023-02-01T17:02:20.559Z,7.30
2023-02-01T17:04:49.556Z,7.06
2023-02-01T17:07:19.971Z,7.01
2023-02-01T17:09:47.910Z,6.97
2023-02-01T17:12:31.263Z,6.94
2023-02-01T17:14:59.115Z,6.83
2023-02-01T17:17:38.871Z,6.91
2023-02-01T17:20:07.544Z,6.61
2023-02-01T17:22:34.694Z,7.07
2023-02-01T17:25:01.617Z,6.93
2023-02-01T17:27:30.376Z,6.98
2023-02-01T17:29:57.235Z,6.92
2023-02-01T17:32:25.682Z,7.21
2023-02-01T17:34:52.687Z,7.10
2023-02-01T17:37:27.013Z,7.01
2023-02-01T17:39:57.178Z,6.83
2023-02-01T17:42:25.977Z,6.93
2023-02-01T17:45:19.850Z,7.20
2023-02-01T17:47:47.776Z,6.75
2023-02-01T17:50:14.857Z,7.00
2023-02-01T17:52:41.443Z,7.16
2023-02-01T17:55:23.466Z,7.23
2023-02-01T17:57:51.148Z,7.11
2023-02-01T18:00:19.387Z,6.95
2023-02-01T18:02:46.067Z,6.93
2023-02-01T18:05:18.362Z,6.81
2023-02-01T18:07:44.916Z,7.00
2023-02-01T18:10:12.376Z,7.06
2023-02-01T18:12:39.452Z,6.88
2023-02-01T18:15:18.153Z,7.11
2023-02-01T18:17:45.412Z,7.32
2023-02-01T18:20:24.686Z,7.19
2023-02-01T18:22:52.145Z,6.99
2023-02-01T18:25:22.743Z,6.91
2023-02-01T18:27:52.376Z,7.00
2023-02-01T18:30:24.558Z,6.71
2023-02-01T18:32:51.820Z,7.22
2023-02-01T18:35:27.460Z,6.90
2023-02-01T18:37:56.468Z,6.74
2023-02-01T18:40:26.179Z,6.86
2023-02-01T18:42:53.356Z,6.75
2023-02-01T18:45:25.425Z,6.71
2023-02-01T18:47:52.665Z,6.69
2023-02-01T18:50:20.128Z,6.73
2023-02-01T18:52:47.591Z,6.72
2023-02-01T18:55:14.645Z,6.81
2023-02-01T18:57:42.546Z,6.76
2023-02-01T19:00:10.836Z,6.58
2023-02-01T19:02:39.234Z,6.52
2023-02-01T19:05:10.731Z,6.75
2023-02-01T19:07:38.492Z,6.57
2023-02-01T19:10:06.985Z,6.47
2023-02-01T19:12:34.188Z,6.37
2023-02-01T19:15:01.081Z,6.35
2023-02-01T19:17:30.995Z,6.58
2023-02-01T19:20:00.822Z,6.69
2023-02-01T19:22:27.686Z,6.47
2023-02-01T19:24:54.763Z,6.66
2023-02-01T19:27:21.774Z,6.70
2023-02-01T19:29:48.875Z,6.87
2023-02-01T19:32:16.093Z,6.61
2023-02-01T19:34:42.916Z,6.80
2023-02-01T19:37:10.315Z,6.68
2023-02-01T19:39:41.882Z,6.55
2023-02-01T19:42:09.219Z,6.59
2023-02-01T19:44:35.983Z,6.67
2023-02-01T19:47:02.703Z,6.54
2023-02-01T19:49:29.540Z,6.90
2023-02-01T19:51:56.746Z,6.59
2023-02-01T19:54:23.340Z,6.57
2023-02-01T19:56:51.105Z,6.70
2023-02-01T19:59:19.123Z,6.71
2023-02-01T20:01:46.594Z,6.51
2023-02-01T20:04:15.700Z,6.68
2023-02-01T20:06:48.819Z,6.57
2023-02-01T20:09:21.062Z,6.30
2023-02-01T20:11:48.595Z,6.45
2023-02-01T20:14:15.892Z,6.42
2023-02-01T20:16:42.844Z,6.42
2023-02-01T20:19:10.821Z,6.34
2023-02-01T20:21:39.159Z,6.50
2023-02-01T20:24:06.353Z,6.49
2023-02-01T20:26:34.651Z,6.60
2023-02-01T20:29:02.311Z,6.70
2023-02-01T20:31:30.191Z,6.56
2023-02-01T20:33:58.412Z,6.55
2023-02-01T20:36:28.743Z,6.59
2023-02-01T20:38:56.769Z,6.39
2023-02-01T20:41:24.234Z,6.59
2023-02-01T20:43:51.072Z,6.67
2023-02-01T20:46:17.991Z,6.35
2023-02-01T20:48:46.286Z,6.48
2023-02-01T20:51:14.663Z,6.39
2023-02-01T20:53:41.802Z,6.53
2023-02-01T20:56:10.511Z,6.53
2023-02-01T20:58:37.451Z,6.56
2023-02-01T21:01:04.244Z,6.65
2023-02-01T21:03:30.929Z,6.37
2023-02-01T21:06:00.243Z,6.30
2023-02-01T21:08:28.681Z,6.39
2023-02-01T21:10:59.837Z,6.25
2023-02-01T21:13:28.290Z,6.20
2023-02-01T21:15:54.901Z,6.03
2023-02-01T21:18:21.682Z,6.09
2023-02-01T21:20:48.348Z,6.11
2023-02-01T21:23:16.203Z,6.12
2023-02-01T21:25:44.150Z,6.07
2023-02-01T21:28:12.946Z,6.21
2023-02-01T21:30:39.641Z,6.08
2023-02-01T21:33:07.790Z,6.30
2023-02-01T21:35:34.831Z,6.33
2023-02-01T21:38:01.671Z,6.26
2023-02-01T21:40:28.235Z,6.20
2023-02-01T21:42:54.948Z,6.24
2023-02-01T21:45:21.765Z,6.28
2023-02-01T21:47:49.490Z,6.39
2023-02-01T21:50:19.864Z,6.39
2023-02-01T21:52:46.699Z,6.67
2023-02-01T21:55:13.963Z,6.60
2023-02-01T21:57:41.147Z,6.67
2023-02-01T22:00:08.988Z,6.50
2023-02-01T22:02:36.479Z,6.49
2023-02-01T22:05:06.622Z,6.35
2023-02-01T22:07:36.198Z,6.40
2023-02-01T22:10:04.159Z,6.18
2023-02-01T22:12:30.733Z,6.31
2023-02-01T22:14:57.725Z,6.19
2023-02-01T22:17:24.318Z,6.37
2023-02-01T22:19:50.891Z,6.48
2023-02-01T22:22:17.678Z,6.44
2023-02-01T22:24:44.318Z,6.23
2023-02-01T22:27:13.802Z,6.24
2023-02-01T22:29:42.259Z,6.17
2023-02-01T22:32:09.243Z,6.32
2023-02-01T22:34:36.006Z,6.22
2023-02-01T22:37:03.307Z,6.26
2023-02-01T22:39:29.841Z,6.45
2023-02-01T22:41:56.466Z,6.47
2023-02-01T22:44:23.848Z,6.35
2023-02-01T22:46:50.587Z,6.38
2023-02-01T22:49:17.241Z,6.31
2023-02-01T22:51:44.055Z,6.41
2023-02-01T22:54:17.169Z,6.19
2023-02-01T22:56:44.115Z,6.35
2023-02-01T22:59:14.373Z,6.29
2023-02-01T23:01:41.788Z,6.28
2023-02-01T23:04:12.484Z,6.27
2023-02-01T23:06:39.998Z,6.18
2023-02-01T23:09:18.711Z,6.21
2023-02-01T23:11:45.609Z,6.42
2023-02-01T23:14:13.636Z,6.33
2023-02-01T23:16:41.545Z,6.38
2023-02-01T23:19:08.164Z,6.20
2023-02-01T23:21:35.266Z,6.27
2023-02-01T23:24:03.376Z,6.49
2023-02-01T23:26:31.593Z,6.42
2023-02-01T23:28:59.371Z,6.33
2023-02-01T23:31:30.694Z,6.34
2023-02-01T23:33:59.856Z,6.27
2023-02-01T23:36:28.367Z,6.40
2023-02-01T23:38:55.522Z,6.27
2023-02-01T23:41:23.648Z,6.37
2023-02-01T23:43:59.840Z,6.22
2023-02-01T23:46:38.185Z,6.24
2023-02-01T23:49:07.550Z,6.60
2023-02-01T23:51:34.457Z,6.66
2023-02-01T23:54:01.242Z,6.47
2023-02-01T23:56:33.512Z,6.60
2023-02-01T23:59:02.539Z,6.52
